sensor_id;sensor_type;location;lat;lon;timestamp;temperature;humidity
40816;DHT22;26535;48.788;9.214;2022-12-24T06:01:58;8.60;99.90
40816;DHT22;26535;48.788;9.214;2022-12-24T06:04:24;8.60;99.90
40816;DHT22;26535;48.788;9.214;2022-12-24T06:06:50;8.50;99.90
40816;DHT22;26535;48.788;9.214;2022-12-24T06:09:16;8.50;99.90
40816;DHT22;26535;48.788;9.214;2022-12-24T06:11:42;8.40;99.90
40816;DHT22;26535;48.788;9.214;2022-12-24T06:14:08;8.40;99.90
40816;DHT22;26535;48.788;9.214;2022-12-24T06:16:33;8.30;99.90
40816;DHT22;26535;48.788;9.214;2022-12-24T06:18:59;8.30;99.90
40816;DHT22;26535;48.788;9.214;2022-12-24T06:21:25;8.30;99.90
40816;DHT22;26535;48.788;9.214;2022-12-24T06:23:51;8.30;99.90
40816;DHT22;26535;48.788;9.214;2022-12-24T06:26:19;8.30;99.90
40816;DHT22;26535;48.788;9.214;2022-12-24T06:28:46;8.30;99.90
40816;DHT22;26535;48.788;9.214;2022-12-24T06:31:18;8.30;99.90
40816;DHT22;26535;48.788;9.214;2022-12-24T06:33:44;8.30;99.90
40816;DHT22;26535;48.788;9.214;2022-12-24T06:36:24;8.30;99.90
40816;DHT22;26535;48.788;9.214;2022-12-24T06:38:56;8.30;99.90
40816;DHT22;26535;48.788;9.214;2022-12-24T06:41:37;8.30;99.90
40816;DHT22;26535;48.788;9.214;2022-12-24T06:44:07;8.30;99.90
40816;DHT22;26535;48.788;9.214;2022-12-24T06:46:33;8.30;99.90
40816;DHT22;26535;48.788;9.214;2022-12-24T06:49:02;8.30;99.90
40816;DHT22;26535;48.788;9.214;2022-12-24T06:51:28;8.30;99.90
40816;DHT22;26535;48.788;9.214;2022-12-24T06:53:53;8.40;99.90
40816;DHT22;26535;48.788;9.214;2022-12-24T06:56:21;8.50;99.90
40816;DHT22;26535;48.788;9.214;2022-12-24T06:58:50;8.60;99.90
40816;DHT22;26535;48.788;9.214;2022-12-24T07:01:29;8.60;99.90
40816;DHT22;26535;48.788;9.214;2022-12-24T07:04:49;8.60;99.90
40816;DHT22;26535;48.788;9.214;2022-12-24T07:07:15;8.70;99.90
40816;DHT22;26535;48.788;9.214;2022-12-24T07:09:43;8.80;99.90
40816;DHT22;26535;48.788;9.214;2022-12-24T07:12:09;8.80;99.90
40816;DHT22;26535;48.788;9.214;2022-12-24T07:14:35;8.80;99.90
40816;DHT22;26535;48.788;9.214;2022-12-24T07:17:01;8.90;99.90
40816;DHT22;26535;48.788;9.214;2022-12-24T07:19:41;8.80;99.90
40816;DHT22;26535;48.788;9.214;2022-12-24T07:22:09;8.90;99.90
40816;DHT22;26535;48.788;9.214;2022-12-24T07:24:35;8.90;99.90
40816;DHT22;26535;48.788;9.214;2022-12-24T07:27:01;8.90;99.90
40816;DHT22;26535;48.788;9.214;2022-12-24T07:29:27;8.80;99.90
40816;DHT22;26535;48.788;9.214;2022-12-24T07:31:52;8.80;99.90
40816;DHT22;26535;48.788;9.214;2022-12-24T07:34:21;8.80;99.90
40816;DHT22;26535;48.788;9.214;2022-12-24T07:36:47;8.80;99.90
40816;DHT22;26535;48.788;9.214;2022-12-24T07:39:13;8.80;99.90
40816;DHT22;26535;48.788;9.214;2022-12-24T07:41:38;8.90;99.90
40816;DHT22;26535;48.788;9.214;2022-12-24T07:44:06;8.90;99.90
40816;DHT22;26535;48.788;9.214;2022-12-24T07:46:31;8.90;99.90
40816;DHT22;26535;48.788;9.214;2022-12-24T07:48:57;8.90;99.90
40816;DHT22;26535;48.788;9.214;2022-12-24T07:51:23;8.90;99.90
40816;DHT22;26535;48.788;9.214;2022-12-24T07:53:52;8.90;99.90
40816;DHT22;26535;48.788;9.214;2022-12-24T07:56:17;9.00;99.90
40816;DHT22;26535;48.788;9.214;2022-12-24T07:58:43;9.10;99.90
40816;DHT22;26535;48.788;9.214;2022-12-24T08:01:09;9.30;99.90
40816;DHT22;26535;48.788;9.214;2022-12-24T08:03:35;9.40;99.90
40816;DHT22;26535;48.788;9.214;2022-12-24T08:06:01;9.60;99.90
40816;DHT22;26535;48.788;9.214;2022-12-24T08:08:26;9.70;99.90
40816;DHT22;26535;48.788;9.214;2022-12-24T08:10:52;9.80;99.90
40816;DHT22;26535;48.788;9.214;2022-12-24T08:13:18;9.80;99.90
40816;DHT22;26535;48.788;9.214;2022-12-24T08:15:44;9.80;99.90
40816;DHT22;26535;48.788;9.214;2022-12-24T08:18:11;9.90;99.90
40816;DHT22;26535;48.788;9.214;2022-12-24T08:20:38;9.90;99.90
40816;DHT22;26535;48.788;9.214;2022-12-24T08:23:05;9.90;99.90
40816;DHT22;26535;48.788;9.214;2022-12-24T08:25:31;10.00;99.90
40816;DHT22;26535;48.788;9.214;2022-12-24T08:27:57;10.00;99.90
40816;DHT22;26535;48.788;9.214;2022-12-24T08:30:22;10.00;99.90
40816;DHT22;26535;48.788;9.214;2022-12-24T08:32:48;10.10;99.90
40816;DHT22;26535;48.788;9.214;2022-12-24T08:35:14;10.10;99.90
40816;DHT22;26535;48.788;9.214;2022-12-24T08:37:40;10.20;99.90
40816;DHT22;26535;48.788;9.214;2022-12-24T08:40:06;10.30;99.90
40816;DHT22;26535;48.788;9.214;2022-12-24T08:42:33;10.30;99.90
40816;DHT22;26535;48.788;9.214;2022-12-24T08:45:01;10.30;99.90
40816;DHT22;26535;48.788;9.214;2022-12-24T08:47:27;10.30;99.90
40816;DHT22;26535;48.788;9.214;2022-12-24T08:49:56;10.30;99.90
40816;DHT22;26535;48.788;9.214;2022-12-24T08:52:21;10.30;99.90
40816;DHT22;26535;48.788;9.214;2022-12-24T08:54:48;10.20;99.90
40816;DHT22;26535;48.788;9.214;2022-12-24T08:57:13;10.30;99.90
40816;DHT22;26535;48.788;9.214;2022-12-24T08:59:39;10.30;99.90
40816;DHT22;26535;48.788;9.214;2022-12-24T09:02:05;10.30;99.90
40816;DHT22;26535;48.788;9.214;2022-12-24T09:04:30;10.40;99.90
40816;DHT22;26535;48.788;9.214;2022-12-24T09:06:56;10.50;99.90
40816;DHT22;26535;48.788;9.214;2022-12-24T09:09:22;10.50;99.90
40816;DHT22;26535;48.788;9.214;2022-12-24T09:11:48;10.60;99.90
40816;DHT22;26535;48.788;9.214;2022-12-24T09:14:13;10.60;99.90
40816;DHT22;26535;48.788;9.214;2022-12-24T09:16:39;10.70;99.90
40816;DHT22;26535;48.788;9.214;2022-12-24T09:19:05;10.80;99.90
40816;DHT22;26535;48.788;9.214;2022-12-24T09:21:31;10.90;99.90
40816;DHT22;26535;48.788;9.214;2022-12-24T09:23:56;10.90;99.90
40816;DHT22;26535;48.788;9.214;2022-12-24T09:26:26;10.90;99.90
40816;DHT22;26535;48.788;9.214;2022-12-24T09:28:52;11.00;99.90
40816;DHT22;26535;48.788;9.214;2022-12-24T09:31:18;11.10;99.90
40816;DHT22;26535;48.788;9.214;2022-12-24T09:33:45;11.20;99.90
40816;DHT22;26535;48.788;9.214;2022-12-24T09:36:12;11.20;99.90
40816;DHT22;26535;48.788;9.214;2022-12-24T09:38:38;11.30;99.90
40816;DHT22;26535;48.788;9.214;2022-12-24T09:41:28;11.20;99.90
40816;DHT22;26535;48.788;9.214;2022-12-24T09:44:03;11.20;99.90
40816;DHT22;26535;48.788;9.214;2022-12-24T09:46:39;11.20;99.90
40816;DHT22;26535;48.788;9.214;2022-12-24T09:49:13;11.20;99.90
40816;DHT22;26535;48.788;9.214;2022-12-24T09:51:44;11.30;99.90
40816;DHT22;26535;48.788;9.214;2022-12-24T09:54:27;11.20;99.90
40816;DHT22;26535;48.788;9.214;2022-12-24T09:56:56;11.20;99.90
40816;DHT22;26535;48.788;9.214;2022-12-24T09:59:34;11.20;99.90
40816;DHT22;26535;48.788;9.214;2022-12-24T10:02:10;11.30;99.90
40816;DHT22;26535;48.788;9.214;2022-12-24T10:04:36;11.50;99.90
40816;DHT22;26535;48.788;9.214;2022-12-24T10:13:05;11.90;99.90
40816;DHT22;26535;48.788;9.214;2022-12-24T10:15:39;12.00;99.90
40816;DHT22;26535;48.788;9.214;2022-12-24T10:18:26;12.10;99.90
40816;DHT22;26535;48.788;9.214;2022-12-24T10:21:08;12.30;99.90
40816;DHT22;26535;48.788;9.214;2022-12-24T10:29:34;12.60;99.90
40816;DHT22;26535;48.788;9.214;2022-12-24T10:35:07;12.50;99.90
40816;DHT22;26535;48.788;9.214;2022-12-24T10:37:33;12.50;99.90
40816;DHT22;26535;48.788;9.214;2022-12-24T10:39:59;12.50;99.90
40816;DHT22;26535;48.788;9.214;2022-12-24T10:42:39;12.50;99.90
40816;DHT22;26535;48.788;9.214;2022-12-24T10:45:13;12.40;99.90
40816;DHT22;26535;48.788;9.214;2022-12-24T10:47:42;12.50;99.90
40816;DHT22;26535;48.788;9.214;2022-12-24T10:50:20;12.50;99.90
40816;DHT22;26535;48.788;9.214;2022-12-24T10:52:50;12.60;99.90
40816;DHT22;26535;48.788;9.214;2022-12-24T10:55:26;12.60;99.90
40816;DHT22;26535;48.788;9.214;2022-12-24T10:58:21;12.70;99.90
40816;DHT22;26535;48.788;9.214;2022-12-24T11:00:54;12.70;99.90
40816;DHT22;26535;48.788;9.214;2022-12-24T11:03:59;12.70;99.90
40816;DHT22;26535;48.788;9.214;2022-12-24T11:06:25;12.70;99.90
40816;DHT22;26535;48.788;9.214;2022-12-24T11:08:51;12.80;99.90
40816;DHT22;26535;48.788;9.214;2022-12-24T11:11:19;12.70;99.90
40816;DHT22;26535;48.788;9.214;2022-12-24T11:16:35;12.70;99.90
40816;DHT22;26535;48.788;9.214;2022-12-24T11:19:03;12.60;99.90
40816;DHT22;26535;48.788;9.214;2022-12-24T11:21:39;12.50;99.90
40816;DHT22;26535;48.788;9.214;2022-12-24T11:26:41;12.40;99.90
40816;DHT22;26535;48.788;9.214;2022-12-24T11:31:43;12.20;99.90
40816;DHT22;26535;48.788;9.214;2022-12-24T11:34:28;12.20;99.90
40816;DHT22;26535;48.788;9.214;2022-12-24T11:37:23;12.30;99.90
40816;DHT22;26535;48.788;9.214;2022-12-24T11:39:52;12.30;99.90
40816;DHT22;26535;48.788;9.214;2022-12-24T11:42:33;12.40;99.90
40816;DHT22;26535;48.788;9.214;2022-12-24T11:45:07;12.50;99.90
40816;DHT22;26535;48.788;9.214;2022-12-24T11:47:42;12.60;99.90
40816;DHT22;26535;48.788;9.214;2022-12-24T11:50:33;12.80;99.90
40816;DHT22;26535;48.788;9.214;2022-12-24T11:53:09;13.00;99.90
40816;DHT22;26535;48.788;9.214;2022-12-24T12:04:19;13.40;99.90
40816;DHT22;26535;48.788;9.214;2022-12-24T12:06:55;13.40;99.90
40816;DHT22;26535;48.788;9.214;2022-12-24T12:09:43;13.30;99.90
40816;DHT22;26535;48.788;9.214;2022-12-24T12:12:20;13.30;99.90
40816;DHT22;26535;48.788;9.214;2022-12-24T12:14:50;13.30;99.90
40816;DHT22;26535;48.788;9.214;2022-12-24T12:17:34;13.50;99.90
40816;DHT22;26535;48.788;9.214;2022-12-24T12:20:30;13.60;99.90
40816;DHT22;26535;48.788;9.214;2022-12-24T12:25:45;13.60;99.90
40816;DHT22;26535;48.788;9.214;2022-12-24T12:33:39;13.50;99.90
40816;DHT22;26535;48.788;9.214;2022-12-24T12:36:08;13.40;99.90
40816;DHT22;26535;48.788;9.214;2022-12-24T12:38:35;13.40;99.90
40816;DHT22;26535;48.788;9.214;2022-12-24T12:41:28;13.30;99.90
40816;DHT22;26535;48.788;9.214;2022-12-24T12:47:06;13.30;99.90
40816;DHT22;26535;48.788;9.214;2022-12-24T12:58:00;13.50;99.90
40816;DHT22;26535;48.788;9.214;2022-12-24T13:00:31;13.70;99.90
40816;DHT22;26535;48.788;9.214;2022-12-24T13:03:07;13.70;99.90
40816;DHT22;26535;48.788;9.214;2022-12-24T13:06:13;14.00;99.90
40816;DHT22;26535;48.788;9.214;2022-12-24T13:17:41;15.40;99.90
40816;DHT22;26535;48.788;9.214;2022-12-24T13:20:23;15.80;99.90
40816;DHT22;26535;48.788;9.214;2022-12-24T13:22:57;15.60;99.90
40816;DHT22;26535;48.788;9.214;2022-12-24T13:25:37;15.60;99.90
40816;DHT22;26535;48.788;9.214;2022-12-24T13:28:17;15.50;99.90
40816;DHT22;26535;48.788;9.214;2022-12-24T13:36:09;15.10;99.90
40816;DHT22;26535;48.788;9.214;2022-12-24T13:38:40;15.20;99.90
40816;DHT22;26535;48.788;9.214;2022-12-24T13:47:02;15.30;99.90
40816;DHT22;26535;48.788;9.214;2022-12-24T13:49:39;15.10;99.90
40816;DHT22;26535;48.788;9.214;2022-12-24T13:54:45;14.90;99.90
40816;DHT22;26535;48.788;9.214;2022-12-24T13:57:38;14.80;99.90
40816;DHT22;26535;48.788;9.214;2022-12-24T14:00:25;14.40;99.90
40816;DHT22;26535;48.788;9.214;2022-12-24T14:05:47;14.10;99.90
40816;DHT22;26535;48.788;9.214;2022-12-24T14:08:26;14.10;99.90
40816;DHT22;26535;48.788;9.214;2022-12-24T14:16:03;14.00;99.90
40816;DHT22;26535;48.788;9.214;2022-12-24T14:18:32;14.00;99.90
40816;DHT22;26535;48.788;9.214;2022-12-24T14:21:00;14.00;99.90
40816;DHT22;26535;48.788;9.214;2022-12-24T14:23:48;14.00;99.90
40816;DHT22;26535;48.788;9.214;2022-12-24T14:26:19;13.90;99.90
40816;DHT22;26535;48.788;9.214;2022-12-24T14:28:52;13.90;99.90
40816;DHT22;26535;48.788;9.214;2022-12-24T14:31:19;13.90;99.90
40816;DHT22;26535;48.788;9.214;2022-12-24T14:33:46;13.80;99.90
40816;DHT22;26535;48.788;9.214;2022-12-24T14:36:14;13.70;99.90
40816;DHT22;26535;48.788;9.214;2022-12-24T14:38:42;13.60;99.90
40816;DHT22;26535;48.788;9.214;2022-12-24T14:44:16;13.40;99.90
40816;DHT22;26535;48.788;9.214;2022-12-24T14:46:58;13.20;99.90
40816;DHT22;26535;48.788;9.214;2022-12-24T14:49:52;13.10;99.90
40816;DHT22;26535;48.788;9.214;2022-12-24T14:52:45;13.00;99.90
40816;DHT22;26535;48.788;9.214;2022-12-24T14:55:39;12.70;99.90
40816;DHT22;26535;48.788;9.214;2022-12-24T14:58:30;12.60;99.90
40816;DHT22;26535;48.788;9.214;2022-12-24T15:04:16;12.30;99.90
40816;DHT22;26535;48.788;9.214;2022-12-24T15:06:51;12.10;99.90
40816;DHT22;26535;48.788;9.214;2022-12-24T15:09:28;12.00;99.90
40816;DHT22;26535;48.788;9.214;2022-12-24T15:11:57;11.90;99.90
40816;DHT22;26535;48.788;9.214;2022-12-24T15:14:26;11.80;99.90
40816;DHT22;26535;48.788;9.214;2022-12-24T15:16:57;11.80;99.90
40816;DHT22;26535;48.788;9.214;2022-12-24T15:22:03;11.60;99.90
40816;DHT22;26535;48.788;9.214;2022-12-24T15:24:34;11.50;99.90
40816;DHT22;26535;48.788;9.214;2022-12-24T15:27:01;11.50;99.90
40816;DHT22;26535;48.788;9.214;2022-12-24T15:29:37;11.40;99.90
40816;DHT22;26535;48.788;9.214;2022-12-24T15:32:03;11.40;99.90
40816;DHT22;26535;48.788;9.214;2022-12-24T15:34:37;11.30;99.90
40816;DHT22;26535;48.788;9.214;2022-12-24T15:39:36;11.20;99.90
40816;DHT22;26535;48.788;9.214;2022-12-24T15:42:04;11.10;99.90
40816;DHT22;26535;48.788;9.214;2022-12-24T15:44:55;11.10;99.90
40816;DHT22;26535;48.788;9.214;2022-12-24T15:47:29;11.10;99.90
40816;DHT22;26535;48.788;9.214;2022-12-24T15:50:25;11.10;99.90
40816;DHT22;26535;48.788;9.214;2022-12-24T15:52:48;11.10;99.90
40816;DHT22;26535;48.788;9.214;2022-12-24T15:55:44;11.00;99.90
40816;DHT22;26535;48.788;9.214;2022-12-24T16:00:43;11.00;99.90
40816;DHT22;26535;48.788;9.214;2022-12-24T16:03:24;10.90;99.90
40816;DHT22;26535;48.788;9.214;2022-12-24T16:06:04;10.90;99.90
40816;DHT22;26535;48.788;9.214;2022-12-24T16:08:31;10.90;99.90
40816;DHT22;26535;48.788;9.214;2022-12-24T16:11:16;10.80;99.90
40816;DHT22;26535;48.788;9.214;2022-12-24T16:16:18;10.70;99.90
40816;DHT22;26535;48.788;9.214;2022-12-24T16:18:54;10.70;99.90
40816;DHT22;26535;48.788;9.214;2022-12-24T16:21:27;10.60;99.90
40816;DHT22;26535;48.788;9.214;2022-12-24T16:24:01;10.60;99.90
40816;DHT22;26535;48.788;9.214;2022-12-24T16:26:32;10.60;99.90
40816;DHT22;26535;48.788;9.214;2022-12-24T16:28:58;10.50;99.90
40816;DHT22;26535;48.788;9.214;2022-12-24T16:31:32;10.50;99.90
40816;DHT22;26535;48.788;9.214;2022-12-24T16:34:00;10.50;99.90
40816;DHT22;26535;48.788;9.214;2022-12-24T16:36:26;10.50;99.90
40816;DHT22;26535;48.788;9.214;2022-12-24T16:38:52;10.50;99.90
40816;DHT22;26535;48.788;9.214;2022-12-24T16:41:36;10.50;99.90
40816;DHT22;26535;48.788;9.214;2022-12-24T16:44:25;10.50;99.90
40816;DHT22;26535;48.788;9.214;2022-12-24T16:46:52;10.60;99.90
40816;DHT22;26535;48.788;9.214;2022-12-24T16:49:19;10.60;99.90
40816;DHT22;26535;48.788;9.214;2022-12-24T16:51:49;10.60;99.90
40816;DHT22;26535;48.788;9.214;2022-12-24T16:54:14;10.70;99.90
40816;DHT22;26535;48.788;9.214;2022-12-24T16:56:41;10.70;99.90
40816;DHT22;26535;48.788;9.214;2022-12-24T16:59:18;10.70;99.90
40816;DHT22;26535;48.788;9.214;2022-12-24T17:01:45;10.70;99.90
40816;DHT22;26535;48.788;9.214;2022-12-24T17:04:13;10.60;99.90
40816;DHT22;26535;48.788;9.214;2022-12-24T17:06:40;10.60;99.90
40816;DHT22;26535;48.788;9.214;2022-12-24T17:09:07;10.60;99.90
40816;DHT22;26535;48.788;9.214;2022-12-24T17:11:34;10.60;99.90
40816;DHT22;26535;48.788;9.214;2022-12-24T17:14:00;10.60;99.90
40816;DHT22;26535;48.788;9.214;2022-12-24T17:16:26;10.50;99.90
40816;DHT22;26535;48.788;9.214;2022-12-24T17:18:52;10.60;99.90
40816;DHT22;26535;48.788;9.214;2022-12-24T17:21:18;10.50;99.90
40816;DHT22;26535;48.788;9.214;2022-12-24T17:23:44;10.50;99.90
40816;DHT22;26535;48.788;9.214;2022-12-24T17:26:11;10.50;99.90
40816;DHT22;26535;48.788;9.214;2022-12-24T17:28:37;10.50;99.90
40816;DHT22;26535;48.788;9.214;2022-12-24T17:31:08;10.50;99.90
40816;DHT22;26535;48.788;9.214;2022-12-24T17:33:34;10.60;99.90
40816;DHT22;26535;48.788;9.214;2022-12-24T17:36:00;10.60;99.90
40816;DHT22;26535;48.788;9.214;2022-12-24T17:38:26;10.60;99.90
40816;DHT22;26535;48.788;9.214;2022-12-24T17:41:03;10.60;99.90
40816;DHT22;26535;48.788;9.214;2022-12-24T17:43:33;10.60;99.90
40816;DHT22;26535;48.788;9.214;2022-12-24T17:46:02;10.60;99.90
40816;DHT22;26535;48.788;9.214;2022-12-24T17:48:28;10.50;99.90
40816;DHT22;26535;48.788;9.214;2022-12-24T17:50:54;10.50;99.90
40816;DHT22;26535;48.788;9.214;2022-12-24T17:53:20;10.50;99.90
40816;DHT22;26535;48.788;9.214;2022-12-24T17:55:46;10.40;99.90
40816;DHT22;26535;48.788;9.214;2022-12-24T17:58:11;10.30;99.90
40816;DHT22;26535;48.788;9.214;2022-12-24T18:00:40;10.30;99.90
40816;DHT22;26535;48.788;9.214;2022-12-24T18:03:06;10.30;99.90
40816;DHT22;26535;48.788;9.214;2022-12-24T18:05:35;10.30;99.90
40816;DHT22;26535;48.788;9.214;2022-12-24T18:08:01;10.30;99.90
40816;DHT22;26535;48.788;9.214;2022-12-24T18:10:27;10.30;99.90
40816;DHT22;26535;48.788;9.214;2022-12-24T18:12:53;10.30;99.90
40816;DHT22;26535;48.788;9.214;2022-12-24T18:15:19;10.40;99.90
40816;DHT22;26535;48.788;9.214;2022-12-24T18:17:53;10.40;99.90
40816;DHT22;26535;48.788;9.214;2022-12-24T18:20:20;10.40;99.90
40816;DHT22;26535;48.788;9.214;2022-12-24T18:22:47;10.40;99.90
40816;DHT22;26535;48.788;9.214;2022-12-24T18:25:13;10.40;99.90
40816;DHT22;26535;48.788;9.214;2022-12-24T18:27:39;10.40;99.90
40816;DHT22;26535;48.788;9.214;2022-12-24T18:30:06;10.40;99.90
40816;DHT22;26535;48.788;9.214;2022-12-24T18:32:34;10.40;99.90
40816;DHT22;26535;48.788;9.214;2022-12-24T18:34:59;10.40;99.90
40816;DHT22;26535;48.788;9.214;2022-12-24T18:37:25;10.50;99.90
40816;DHT22;26535;48.788;9.214;2022-12-24T18:39:51;10.60;99.90
40816;DHT22;26535;48.788;9.214;2022-12-24T18:42:17;10.70;99.90
40816;DHT22;26535;48.788;9.214;2022-12-24T18:44:44;10.80;99.90
40816;DHT22;26535;48.788;9.214;2022-12-24T18:47:09;10.90;99.90
40816;DHT22;26535;48.788;9.214;2022-12-24T18:49:36;11.00;99.90
40816;DHT22;26535;48.788;9.214;2022-12-24T18:52:03;11.00;99.90
40816;DHT22;26535;48.788;9.214;2022-12-24T18:54:29;11.00;99.90
40816;DHT22;26535;48.788;9.214;2022-12-24T18:56:55;11.10;99.90
40816;DHT22;26535;48.788;9.214;2022-12-24T18:59:20;11.10;99.90
40816;DHT22;26535;48.788;9.214;2022-12-24T19:01:46;11.10;99.90
40816;DHT22;26535;48.788;9.214;2022-12-24T19:04:12;11.10;99.90
40816;DHT22;26535;48.788;9.214;2022-12-24T19:06:40;11.10;99.90
40816;DHT22;26535;48.788;9.214;2022-12-24T19:09:06;11.10;99.90
40816;DHT22;26535;48.788;9.214;2022-12-24T19:11:33;11.10;99.90
40816;DHT22;26535;48.788;9.214;2022-12-24T19:14:00;11.10;99.90
40816;DHT22;26535;48.788;9.214;2022-12-24T19:16:28;11.10;99.90
40816;DHT22;26535;48.788;9.214;2022-12-24T19:18:54;11.10;99.90
40816;DHT22;26535;48.788;9.214;2022-12-24T19:21:19;11.10;99.90
40816;DHT22;26535;48.788;9.214;2022-12-24T19:23:46;11.10;99.90
40816;DHT22;26535;48.788;9.214;2022-12-24T19:26:13;11.10;99.90
40816;DHT22;26535;48.788;9.214;2022-12-24T19:28:40;11.00;99.90
40816;DHT22;26535;48.788;9.214;2022-12-24T19:31:08;11.00;99.90
40816;DHT22;26535;48.788;9.214;2022-12-24T19:33:49;11.00;99.90
40816;DHT22;26535;48.788;9.214;2022-12-24T19:36:17;11.00;99.90
40816;DHT22;26535;48.788;9.214;2022-12-24T19:38:43;11.00;99.90
40816;DHT22;26535;48.788;9.214;2022-12-24T19:41:11;11.00;99.90
40816;DHT22;26535;48.788;9.214;2022-12-24T19:43:47;11.00;99.90
40816;DHT22;26535;48.788;9.214;2022-12-24T19:46:16;11.00;99.90
40816;DHT22;26535;48.788;9.214;2022-12-24T19:48:42;11.00;99.90
40816;DHT22;26535;48.788;9.214;2022-12-24T19:51:10;10.90;99.90
40816;DHT22;26535;48.788;9.214;2022-12-24T19:53:37;10.90;99.90
40816;DHT22;26535;48.788;9.214;2022-12-24T19:56:03;10.90;99.90
40816;DHT22;26535;48.788;9.214;2022-12-24T19:58:29;10.90;99.90
40816;DHT22;26535;48.788;9.214;2022-12-24T20:01:04;10.90;99.90
40816;DHT22;26535;48.788;9.214;2022-12-24T20:03:30;10.90;99.90
40816;DHT22;26535;48.788;9.214;2022-12-24T20:05:56;10.90;99.90
40816;DHT22;26535;48.788;9.214;2022-12-24T20:08:22;10.90;99.90
40816;DHT22;26535;48.788;9.214;2022-12-24T20:10:48;10.80;99.90
40816;DHT22;26535;48.788;9.214;2022-12-24T20:13:16;10.80;99.90
40816;DHT22;26535;48.788;9.214;2022-12-24T20:15:43;10.80;99.90
40816;DHT22;26535;48.788;9.214;2022-12-24T20:18:10;10.80;99.90
40816;DHT22;26535;48.788;9.214;2022-12-24T20:20:36;10.80;99.90
40816;DHT22;26535;48.788;9.214;2022-12-24T20:23:03;10.80;99.90
40816;DHT22;26535;48.788;9.214;2022-12-24T20:25:32;10.80;99.90
40816;DHT22;26535;48.788;9.214;2022-12-24T20:27:58;10.80;99.90
40816;DHT22;26535;48.788;9.214;2022-12-24T20:30:24;10.80;99.90
40816;DHT22;26535;48.788;9.214;2022-12-24T20:32:54;10.80;99.90
40816;DHT22;26535;48.788;9.214;2022-12-24T20:35:21;10.90;99.90
40816;DHT22;26535;48.788;9.214;2022-12-24T20:37:47;10.80;99.90
40816;DHT22;26535;48.788;9.214;2022-12-24T20:40:13;10.80;99.90
40816;DHT22;26535;48.788;9.214;2022-12-24T20:42:40;10.80;99.90
40816;DHT22;26535;48.788;9.214;2022-12-24T20:45:06;10.80;99.90
40816;DHT22;26535;48.788;9.214;2022-12-24T20:47:33;10.70;99.90
40816;DHT22;26535;48.788;9.214;2022-12-24T20:49:59;10.70;99.90
40816;DHT22;26535;48.788;9.214;2022-12-24T20:52:24;10.60;99.90
40816;DHT22;26535;48.788;9.214;2022-12-24T20:54:50;10.60;99.90
40816;DHT22;26535;48.788;9.214;2022-12-24T20:57:16;10.60;99.90
40816;DHT22;26535;48.788;9.214;2022-12-24T20:59:42;10.60;99.90
40816;DHT22;26535;48.788;9.214;2022-12-24T21:02:12;10.60;99.90
40816;DHT22;26535;48.788;9.214;2022-12-24T21:04:37;10.50;99.90
40816;DHT22;26535;48.788;9.214;2022-12-24T21:07:04;10.50;99.90
40816;DHT22;26535;48.788;9.214;2022-12-24T21:09:30;10.40;99.90
40816;DHT22;26535;48.788;9.214;2022-12-24T21:11:55;10.40;99.90
40816;DHT22;26535;48.788;9.214;2022-12-24T21:14:24;10.40;99.90
40816;DHT22;26535;48.788;9.214;2022-12-24T21:16:51;10.30;99.90
40816;DHT22;26535;48.788;9.214;2022-12-24T21:19:20;10.20;99.90
40816;DHT22;26535;48.788;9.214;2022-12-24T21:21:47;10.20;99.90
40816;DHT22;26535;48.788;9.214;2022-12-24T21:24:13;10.20;99.90
40816;DHT22;26535;48.788;9.214;2022-12-24T21:26:39;10.20;99.90
40816;DHT22;26535;48.788;9.214;2022-12-24T21:29:06;10.20;99.90
40816;DHT22;26535;48.788;9.214;2022-12-24T21:31:33;10.20;99.90
40816;DHT22;26535;48.788;9.214;2022-12-24T21:33:59;10.20;99.90
40816;DHT22;26535;48.788;9.214;2022-12-24T21:36:25;10.20;99.90
40816;DHT22;26535;48.788;9.214;2022-12-24T21:38:52;10.20;99.90
40816;DHT22;26535;48.788;9.214;2022-12-24T21:41:19;10.20;99.90
40816;DHT22;26535;48.788;9.214;2022-12-24T21:43:48;10.20;99.90
40816;DHT22;26535;48.788;9.214;2022-12-24T21:46:16;10.20;99.90
40816;DHT22;26535;48.788;9.214;2022-12-24T21:48:44;10.20;99.90
40816;DHT22;26535;48.788;9.214;2022-12-24T21:51:29;10.20;99.90
40816;DHT22;26535;48.788;9.214;2022-12-24T21:53:56;10.20;99.90
40816;DHT22;26535;48.788;9.214;2022-12-24T21:56:40;10.10;99.90
40816;DHT22;26535;48.788;9.214;2022-12-24T21:59:25;10.20;99.90
40816;DHT22;26535;48.788;9.214;2022-12-24T22:01:51;10.10;99.90
40816;DHT22;26535;48.788;9.214;2022-12-24T22:04:17;10.10;99.90
40816;DHT22;26535;48.788;9.214;2022-12-24T22:06:43;10.10;99.90
40816;DHT22;26535;48.788;9.214;2022-12-24T22:09:27;10.10;99.90
40816;DHT22;26535;48.788;9.214;2022-12-24T22:12:30;10.10;99.90
40816;DHT22;26535;48.788;9.214;2022-12-24T22:14:57;10.10;99.90
40816;DHT22;26535;48.788;9.214;2022-12-24T22:17:22;10.00;99.90
40816;DHT22;26535;48.788;9.214;2022-12-24T22:19:48;10.00;99.90
40816;DHT22;26535;48.788;9.214;2022-12-24T22:22:14;10.00;99.90
40816;DHT22;26535;48.788;9.214;2022-12-24T22:24:40;10.00;99.90
40816;DHT22;26535;48.788;9.214;2022-12-24T22:27:05;10.00;99.90
40816;DHT22;26535;48.788;9.214;2022-12-24T22:29:32;10.00;99.90
40816;DHT22;26535;48.788;9.214;2022-12-24T22:31:58;9.90;99.90
40816;DHT22;26535;48.788;9.214;2022-12-24T22:34:24;9.80;99.90
40816;DHT22;26535;48.788;9.214;2022-12-24T22:36:50;9.80;99.90
40816;DHT22;26535;48.788;9.214;2022-12-24T22:39:15;9.70;99.90
40816;DHT22;26535;48.788;9.214;2022-12-24T22:41:41;9.60;99.90
40816;DHT22;26535;48.788;9.214;2022-12-24T22:44:07;9.50;99.90
40816;DHT22;26535;48.788;9.214;2022-12-24T22:46:34;9.50;99.90
40816;DHT22;26535;48.788;9.214;2022-12-24T22:49:00;9.40;99.90
40816;DHT22;26535;48.788;9.214;2022-12-24T22:51:26;9.40;99.90
40816;DHT22;26535;48.788;9.214;2022-12-24T22:53:52;9.30;99.90
40816;DHT22;26535;48.788;9.214;2022-12-24T22:56:20;9.20;99.90
40816;DHT22;26535;48.788;9.214;2022-12-24T22:58:51;9.20;99.90
40816;DHT22;26535;48.788;9.214;2022-12-24T23:01:17;9.20;99.90
40816;DHT22;26535;48.788;9.214;2022-12-24T23:03:43;9.10;99.90
40816;DHT22;26535;48.788;9.214;2022-12-24T23:06:09;9.10;99.90
40816;DHT22;26535;48.788;9.214;2022-12-24T23:08:36;9.00;99.90
40816;DHT22;26535;48.788;9.214;2022-12-24T23:11:09;9.10;99.90
40816;DHT22;26535;48.788;9.214;2022-12-24T23:13:37;9.10;99.90
40816;DHT22;26535;48.788;9.214;2022-12-24T23:16:22;9.10;99.90
40816;DHT22;26535;48.788;9.214;2022-12-24T23:18:47;9.10;99.90
40816;DHT22;26535;48.788;9.214;2022-12-24T23:21:13;9.10;99.90
40816;DHT22;26535;48.788;9.214;2022-12-24T23:23:39;9.10;99.90
40816;DHT22;26535;48.788;9.214;2022-12-24T23:26:07;9.00;99.90
40816;DHT22;26535;48.788;9.214;2022-12-24T23:28:34;9.00;99.90
40816;DHT22;26535;48.788;9.214;2022-12-24T23:31:00;9.00;99.90
40816;DHT22;26535;48.788;9.214;2022-12-24T23:33:27;9.10;99.90